createdAt,value
2018-05-12T00:01:02.804Z,88.60
2018-05-12T00:03:32.599Z,88.70
2018-05-12T00:06:02.409Z,89.10
2018-05-12T00:08:32.205Z,89.00
2018-05-12T00:11:02.046Z,89.00
2018-05-12T00:13:31.083Z,89.00
2018-05-12T00:16:00.134Z,89.60
2018-05-12T00:18:29.175Z,89.50
2018-05-12T00:20:58.207Z,89.10
2018-05-12T00:23:28.035Z,89.40
2018-05-12T00:25:57.830Z,89.50
2018-05-12T00:28:27.625Z,89.40
2018-05-12T00:30:57.443Z,89.50
2018-05-12T00:33:27.245Z,89.60
2018-05-12T00:35:57.070Z,89.60
2018-05-12T00:38:26.518Z,89.60
2018-05-12T00:40:55.591Z,89.60
2018-05-12T00:43:24.279Z,89.50
2018-05-12T00:45:53.358Z,89.40
2018-05-12T00:48:22.397Z,89.10
2018-05-12T00:50:51.110Z,89.20
2018-05-12T00:53:20.247Z,89.70
2018-05-12T00:55:49.311Z,89.90
2018-05-12T00:58:18.330Z,89.70
2018-05-12T01:00:47.430Z,89.90
2018-05-12T01:03:16.484Z,90.20
2018-05-12T01:05:46.333Z,90.40
2018-05-12T01:08:16.125Z,90.20
2018-05-12T01:10:45.697Z,90.20
2018-05-12T01:13:14.741Z,91.00
2018-05-12T01:15:44.548Z,90.80
2018-05-12T01:18:14.365Z,91.00
2018-05-12T01:20:43.847Z,90.90
2018-05-12T01:23:13.683Z,90.80
2018-05-12T01:25:43.496Z,91.00
2018-05-12T01:28:12.542Z,91.00
2018-05-12T01:30:41.244Z,91.00
2018-05-12T01:33:10.047Z,90.80
2018-05-12T01:35:39.870Z,90.90
2018-05-12T01:38:09.656Z,91.40
2018-05-12T01:40:39.464Z,92.30
2018-05-12T01:43:08.486Z,91.60
2018-05-12T01:45:37.206Z,91.60
2018-05-12T01:48:06.243Z,91.70
2018-05-12T01:50:36.048Z,91.80
2018-05-12T01:53:05.890Z,91.60
2018-05-12T01:55:35.681Z,91.50
2018-05-12T01:58:05.472Z,91.30
2018-05-12T02:00:35.324Z,91.00
2018-05-12T02:03:05.112Z,91.10
2018-05-12T02:05:34.930Z,91.20
2018-05-12T02:08:03.687Z,91.20
2018-05-12T02:10:32.713Z,91.30
2018-05-12T02:13:01.833Z,91.30
2018-05-12T02:15:31.078Z,90.90
2018-05-12T02:18:01.026Z,89.90
2018-05-12T02:20:30.870Z,89.50
2018-05-12T02:23:00.051Z,89.50
2018-05-12T02:25:28.741Z,89.20
2018-05-12T02:27:57.801Z,89.00
2018-05-12T02:30:27.732Z,88.80
2018-05-12T02:32:57.629Z,89.90
2018-05-12T02:35:27.461Z,89.30
2018-05-12T02:37:57.256Z,89.30
2018-05-12T02:40:26.284Z,89.30
2018-05-12T02:42:55.346Z,89.40
2018-05-12T02:45:25.139Z,89.30
2018-05-12T02:47:54.184Z,90.10
2018-05-12T02:50:23.200Z,89.20
2018-05-12T02:52:52.249Z,89.00
2018-05-12T02:55:22.035Z,88.70
2018-05-12T02:57:51.844Z,89.40
2018-05-12T03:00:21.684Z,88.40
2018-05-12T03:02:50.727Z,88.50
2018-05-12T03:05:19.759Z,88.30
2018-05-12T03:07:49.553Z,87.80
2018-05-12T03:10:19.021Z,87.70
2018-05-12T03:12:47.741Z,87.60
2018-05-12T03:15:17.588Z,87.40
2018-05-12T03:17:46.643Z,88.30
2018-05-12T03:20:15.721Z,87.60
2018-05-12T03:25:20.859Z,87.70
2018-05-12T03:27:49.901Z,87.90
2018-05-12T03:30:19.711Z,87.90
2018-05-12T03:32:49.528Z,87.70
2018-05-12T03:35:19.361Z,87.80
2018-05-12T03:37:48.430Z,87.80
2018-05-12T03:40:18.245Z,87.90
2018-05-12T03:42:47.334Z,87.90
2018-05-12T03:45:15.855Z,87.40
2018-05-12T03:47:45.039Z,87.40
2018-05-12T03:50:15.021Z,87.20
2018-05-12T03:52:44.882Z,87.20
2018-05-12T03:55:13.645Z,87.20
2018-05-12T03:57:42.661Z,87.00
2018-05-12T04:00:11.693Z,87.30
2018-05-12T04:02:40.736Z,87.30
2018-05-12T04:05:20.935Z,87.20
2018-05-12T04:08:02.875Z,86.80
2018-05-12T04:10:43.198Z,86.80
2018-05-12T04:13:11.952Z,86.60
2018-05-12T04:15:41.017Z,86.40
2018-05-12T04:18:10.824Z,86.10
2018-05-12T04:20:39.854Z,86.10
2018-05-12T04:23:08.919Z,86.00
2018-05-12T04:25:37.923Z,86.00
2018-05-12T04:28:06.984Z,86.20
2018-05-12T04:30:36.915Z,85.70
2018-05-12T04:33:06.738Z,85.30
2018-05-12T04:35:35.740Z,85.20
2018-05-12T04:38:04.777Z,85.40
2018-05-12T04:40:34.569Z,85.60
2018-05-12T04:43:03.617Z,84.60
2018-05-12T04:45:32.689Z,84.70
2018-05-12T04:48:02.624Z,85.20
2018-05-12T04:50:31.653Z,85.20
2018-05-12T04:53:00.710Z,86.60
2018-05-12T04:55:29.793Z,86.20
2018-05-12T04:57:59.615Z,79.50
2018-05-12T05:00:30.355Z,80.30
2018-05-12T05:03:00.204Z,80.20
2018-05-12T05:05:28.951Z,80.20
2018-05-12T05:07:58.053Z,71.00
2018-05-12T05:10:27.161Z,67.50
2018-05-12T05:12:56.222Z,66.10
2018-05-12T05:15:25.298Z,69.00
2018-05-12T05:17:55.115Z,59.20
2018-05-12T05:20:24.142Z,59.20
2018-05-12T05:22:53.229Z,58.80
2018-05-12T05:25:23.146Z,64.90
2018-05-12T05:27:51.608Z,64.90
2018-05-12T05:30:21.411Z,61.00
2018-05-12T05:32:51.247Z,64.40
2018-05-12T05:35:21.070Z,60.10
2018-05-12T05:37:51.071Z,59.30
2018-05-12T05:40:20.863Z,55.00
2018-05-12T05:42:50.695Z,49.60
2018-05-12T05:45:20.480Z,50.50
2018-05-12T05:47:49.493Z,50.50
2018-05-12T05:50:18.549Z,49.90
2018-05-12T05:52:48.200Z,46.70
2018-05-12T05:55:17.805Z,47.80
2018-05-12T05:57:47.623Z,47.90
2018-05-12T06:00:17.306Z,45.00
2018-05-12T06:02:46.977Z,42.60
2018-05-12T06:05:16.627Z,42.70
2018-05-12T06:07:46.250Z,46.10
2018-05-12T06:10:15.552Z,45.80
2018-05-12T06:12:45.954Z,45.90
2018-05-12T06:15:15.589Z,45.80
2018-05-12T06:17:45.292Z,45.10
2018-05-12T06:20:14.970Z,44.80
2018-05-12T06:22:45.077Z,42.20
2018-05-12T06:25:14.730Z,45.60
2018-05-12T06:27:44.384Z,46.00
2018-05-12T06:30:14.078Z,42.90
2018-05-12T06:32:48.299Z,42.50
2018-05-12T06:35:18.073Z,43.80
2018-05-12T06:37:47.736Z,39.50
2018-05-12T06:40:17.083Z,48.40
2018-05-12T06:42:46.863Z,53.30
2018-05-12T06:45:16.804Z,52.90
2018-05-12T08:42:46.434Z,54.50
2018-05-12T08:45:15.581Z,54.30
2018-05-12T08:47:44.601Z,55.30
2018-05-12T08:50:14.472Z,54.80
2018-05-12T08:52:43.576Z,54.70
2018-05-12T08:55:12.799Z,52.70
2018-05-12T08:57:41.988Z,52.70
2018-05-12T09:00:11.130Z,55.10
2018-05-12T09:02:40.231Z,54.40
2018-05-12T09:05:09.416Z,55.90
2018-05-12T09:07:39.269Z,54.90
2018-05-12T09:10:08.363Z,54.90
2018-05-12T09:12:37.441Z,55.70
2018-05-12T09:15:06.572Z,57.30
2018-05-12T09:17:35.686Z,57.80
2018-05-12T09:20:05.520Z,51.50
2018-05-12T09:22:35.414Z,52.40
2018-05-12T09:25:06.289Z,52.90
2018-05-12T09:27:35.244Z,52.90
2018-05-12T09:30:04.390Z,55.70
2018-05-12T09:32:41.088Z,55.70
2018-05-12T09:35:12.482Z,55.80
2018-05-12T09:37:41.974Z,54.70
2018-05-12T09:40:11.560Z,54.90
2018-05-12T09:42:40.893Z,56.50
2018-05-12T09:45:10.027Z,56.90
2018-05-12T09:47:39.915Z,55.60
2018-05-12T09:50:08.943Z,55.50
2018-05-12T09:52:37.783Z,56.70
2018-05-12T09:55:06.822Z,57.50
2018-05-12T09:57:35.976Z,58.50
2018-05-12T10:00:05.441Z,55.50
2018-05-12T10:02:34.696Z,55.40
2018-05-12T10:05:03.399Z,56.10
2018-05-12T10:07:32.447Z,57.40
2018-05-12T10:10:01.242Z,56.10
2018-05-12T10:12:30.343Z,55.30
2018-05-12T10:14:59.415Z,55.60
2018-05-12T10:17:29.223Z,56.60
2018-05-12T10:19:59.046Z,56.70
2018-05-12T10:22:28.104Z,56.70
2018-05-12T10:24:57.161Z,57.10
2018-05-12T10:27:26.247Z,56.60
2018-05-12T10:29:55.343Z,57.70
2018-05-12T10:32:24.477Z,57.10
2018-05-12T10:34:54.376Z,56.80
2018-05-12T10:37:24.255Z,56.70
2018-05-12T10:39:53.851Z,56.10
2018-05-12T10:42:22.976Z,55.30
2018-05-12T10:44:51.911Z,54.90
2018-05-12T10:47:21.962Z,56.50
2018-05-12T10:49:51.067Z,56.50
2018-05-12T10:52:20.337Z,55.70
2018-05-12T10:54:50.168Z,56.20
2018-05-12T10:57:19.223Z,56.20
2018-05-12T10:59:48.287Z,57.80
2018-05-12T11:02:17.358Z,56.70
2018-05-12T11:04:46.397Z,56.60
2018-05-12T11:07:15.543Z,56.80
2018-05-12T11:09:44.862Z,56.50
2018-05-12T11:12:13.837Z,54.70
2018-05-12T11:14:42.866Z,54.50
2018-05-12T11:17:11.906Z,57.00
2018-05-12T11:19:40.961Z,56.30
2018-05-12T11:22:10.111Z,54.40
2018-05-12T11:24:39.919Z,54.00
2018-05-12T11:27:09.014Z,54.00
2018-05-12T11:29:37.802Z,55.30
2018-05-12T11:32:07.675Z,56.00
2018-05-12T11:34:36.911Z,55.90
2018-05-12T11:37:06.048Z,55.60
2018-05-12T11:39:35.714Z,56.80
2018-05-12T11:42:04.905Z,56.40
2018-05-12T11:44:34.291Z,58.30
2018-05-12T11:47:03.171Z,57.40
2018-05-12T11:49:32.495Z,57.10
2018-05-12T11:52:01.661Z,57.20
2018-05-12T11:54:30.749Z,57.40
2018-05-12T11:57:00.653Z,57.00
2018-05-12T11:59:30.498Z,56.40
2018-05-12T12:01:59.601Z,56.40
2018-05-12T12:04:29.406Z,55.50
2018-05-12T12:06:59.213Z,56.40
2018-05-12T12:09:28.267Z,56.40
2018-05-12T12:11:57.429Z,56.10
2018-05-12T12:14:26.510Z,55.60
2018-05-12T12:16:56.319Z,56.60
2018-05-12T12:19:26.120Z,57.20
2018-05-12T12:21:55.937Z,56.20
2018-05-12T12:24:25.392Z,54.60
2018-05-12T12:26:54.557Z,54.60
2018-05-12T12:29:23.624Z,54.90
2018-05-12T12:31:53.413Z,53.60
2018-05-12T12:34:22.445Z,52.60
2018-05-12T12:36:51.550Z,52.20
2018-05-12T12:39:20.778Z,52.90
2018-05-12T12:41:49.808Z,52.70
2018-05-12T12:44:19.681Z,53.70
2018-05-12T12:46:48.789Z,52.90
2018-05-12T12:49:17.946Z,53.80
2018-05-12T12:51:47.051Z,54.50
2018-05-12T12:54:16.136Z,53.80
2018-05-12T12:56:45.266Z,55.10
2018-05-12T12:59:14.397Z,55.80
2018-05-12T13:01:43.538Z,56.40
2018-05-12T13:04:12.614Z,56.50
2018-05-12T13:06:41.686Z,56.10
2018-05-12T13:09:11.509Z,55.90
2018-05-12T13:11:40.557Z,55.90
2018-05-12T13:14:09.609Z,55.00
2018-05-12T13:16:38.639Z,54.80
2018-05-12T13:19:07.692Z,54.70
2018-05-12T13:21:36.782Z,55.30
2018-05-12T13:24:06.051Z,55.70
2018-05-12T13:26:35.071Z,55.80
2018-05-12T13:29:04.197Z,56.60
2018-05-12T13:31:33.217Z,56.20
2018-05-12T13:34:03.047Z,56.10
2018-05-12T13:36:32.104Z,56.10
2018-05-12T13:39:01.169Z,55.70
2018-05-12T13:41:30.941Z,54.60
2018-05-12T13:44:00.019Z,54.50
2018-05-12T13:46:28.771Z,54.90
2018-05-12T13:48:57.934Z,55.70
2018-05-12T13:51:26.978Z,55.20
2018-05-12T13:53:56.161Z,55.50
2018-05-12T13:56:24.984Z,55.30
2018-05-12T13:58:54.096Z,55.60
2018-05-12T14:01:24.031Z,56.10
2018-05-12T14:03:54.015Z,55.10
2018-05-12T14:06:23.056Z,55.10
2018-05-12T14:08:52.204Z,54.80
2018-05-12T14:11:21.225Z,55.10
2018-05-12T14:13:51.062Z,55.10
2018-05-12T14:16:20.070Z,55.10
2018-05-12T14:18:49.102Z,55.40
2018-05-12T14:21:18.234Z,55.90
2018-05-12T14:23:47.272Z,55.40
2018-05-12T14:26:16.352Z,55.20
2018-05-12T14:28:45.550Z,54.30
2018-05-12T14:31:14.580Z,54.40
2018-05-12T14:33:44.392Z,55.00
2018-05-12T14:36:14.199Z,54.10
2018-05-12T14:38:43.261Z,54.20
2018-05-12T14:41:12.020Z,54.80
2018-05-12T14:43:41.059Z,54.70
2018-05-12T14:46:10.206Z,54.30
2018-05-12T14:48:39.256Z,54.60
2018-05-12T14:51:08.360Z,53.90
2018-05-12T14:53:37.615Z,54.40
2018-05-12T14:56:07.525Z,54.90
2018-05-12T14:58:36.710Z,54.90
2018-05-12T15:01:05.482Z,54.50
2018-05-12T15:03:34.640Z,54.70
2018-05-12T15:06:03.684Z,54.90
2018-05-12T15:08:34.015Z,54.40
2018-05-12T15:11:03.177Z,53.20
2018-05-12T15:13:33.064Z,53.40
2018-05-12T15:16:02.937Z,53.20
2018-05-12T15:18:31.991Z,53.20
2018-05-12T15:21:01.794Z,54.10
2018-05-12T15:23:30.928Z,54.10
2018-05-12T15:26:00.432Z,53.60
2018-05-12T15:28:29.457Z,53.60
2018-05-12T15:30:58.509Z,52.80
2018-05-12T15:33:27.544Z,53.20
2018-05-12T15:35:56.610Z,52.90
2018-05-12T15:38:25.699Z,53.40
2018-05-12T15:40:55.504Z,53.50
2018-05-12T15:43:24.556Z,53.50
2018-05-12T15:45:53.644Z,54.20
2018-05-12T15:48:22.683Z,54.50
2018-05-12T15:50:51.807Z,54.20
2018-05-12T15:53:21.196Z,54.40
2018-05-12T15:55:50.291Z,53.90
2018-05-12T15:58:19.380Z,53.70
2018-05-12T16:00:48.568Z,53.60
2018-05-12T16:03:18.478Z,53.70
2018-05-12T16:05:47.826Z,54.10
2018-05-12T16:08:16.899Z,54.00
2018-05-12T16:10:46.041Z,54.30
2018-05-12T16:13:15.898Z,55.00
2018-05-12T16:15:45.109Z,54.50
2018-05-12T16:18:14.405Z,54.40
2018-05-12T16:20:44.441Z,54.60
2018-05-12T16:23:13.503Z,54.50
2018-05-12T16:25:42.579Z,54.80
2018-05-12T16:28:12.468Z,54.70
2018-05-12T16:30:41.192Z,54.60
2018-05-12T16:33:10.965Z,54.30
2018-05-12T16:35:39.793Z,54.30
2018-05-12T16:38:09.582Z,54.30
2018-05-12T16:40:39.418Z,54.40
2018-05-12T16:43:08.436Z,54.40
2018-05-12T16:45:37.483Z,54.60
2018-05-12T16:48:07.282Z,54.90
2018-05-12T16:50:37.181Z,55.70
2018-05-12T16:53:06.423Z,55.00
2018-05-12T16:55:36.248Z,55.60
2018-05-12T16:58:05.276Z,55.60
2018-05-12T17:00:34.340Z,55.60
2018-05-12T17:03:03.373Z,55.00
2018-05-12T17:05:32.090Z,55.20
2018-05-12T17:08:01.947Z,55.80
2018-05-12T17:10:31.672Z,56.30
2018-05-12T17:13:00.924Z,56.30
2018-05-12T17:15:30.860Z,56.80
2018-05-12T17:17:59.955Z,56.80
2018-05-12T17:20:29.257Z,57.00
2018-05-12T17:22:58.355Z,57.20
2018-05-12T17:25:27.530Z,57.10
2018-05-12T17:27:56.658Z,57.10
2018-05-12T17:30:25.746Z,57.40
2018-05-12T17:32:55.641Z,58.20
2018-05-12T17:35:24.706Z,58.10
2018-05-12T17:37:53.814Z,58.20
2018-05-12T17:40:22.990Z,58.40
2018-05-12T17:42:52.801Z,59.00
2018-05-12T17:45:22.610Z,59.00
2018-05-12T17:47:52.413Z,59.20
2018-05-12T17:50:22.240Z,60.20
2018-05-12T17:52:52.030Z,59.70
2018-05-12T17:55:21.177Z,59.70
2018-05-12T17:57:50.197Z,59.70
2018-05-12T18:00:18.948Z,60.00
2018-05-12T18:02:47.959Z,60.20
2018-05-12T18:05:17.035Z,60.30
2018-05-12T18:07:46.482Z,60.70
2018-05-12T18:10:15.533Z,60.70
2018-05-12T18:12:44.576Z,60.90
2018-05-12T18:15:13.717Z,61.00
2018-05-12T18:17:43.523Z,61.50
2018-05-12T18:20:13.344Z,61.80
2018-05-12T18:22:43.143Z,62.00
2018-05-12T18:25:12.222Z,62.00
2018-05-12T18:27:42.071Z,62.30
2018-05-12T18:30:11.110Z,62.20
2018-05-12T18:32:40.383Z,62.50
2018-05-12T18:35:09.457Z,62.60
2018-05-12T18:37:38.629Z,62.90
2018-05-12T18:40:07.759Z,63.20
2018-05-12T18:42:36.530Z,63.50
2018-05-12T18:45:04.882Z,63.70
2018-05-12T18:47:34.710Z,64.10
2018-05-12T18:50:03.839Z,64.40
2018-05-12T18:52:32.861Z,64.40
2018-05-12T18:55:01.925Z,64.70
2018-05-12T18:57:30.986Z,64.70
2018-05-12T19:00:00.047Z,65.10
2018-05-12T19:02:28.767Z,65.60
2018-05-12T19:04:58.233Z,66.30
2018-05-12T19:07:26.945Z,66.30
2018-05-12T19:09:56.746Z,66.70
2018-05-12T19:12:26.273Z,67.10
2018-05-12T19:14:56.066Z,67.30
2018-05-12T19:17:25.879Z,67.40
2018-05-12T19:19:54.922Z,67.40
2018-05-12T19:22:24.118Z,67.90
2018-05-12T19:24:53.352Z,68.30
2018-05-12T19:27:22.471Z,68.80
2018-05-12T19:29:51.688Z,69.30
2018-05-12T19:32:20.825Z,69.20
2018-05-12T19:34:50.755Z,69.60
2018-05-12T19:37:20.699Z,70.00
2018-05-12T19:39:49.762Z,70.00
2018-05-12T19:42:19.675Z,70.50
2018-05-12T19:44:48.777Z,70.50
2018-05-12T19:47:17.982Z,70.70
2018-05-12T19:49:47.043Z,70.90
2018-05-12T19:52:16.633Z,70.90
2018-05-12T19:54:45.348Z,71.10
2018-05-12T19:57:14.419Z,71.30
2018-05-12T19:59:43.477Z,71.70
2018-05-12T20:02:13.391Z,71.90
2018-05-12T20:04:43.185Z,72.20
2018-05-12T20:07:13.021Z,72.10
2018-05-12T20:09:42.118Z,72.10
2018-05-12T20:12:11.219Z,72.30
2018-05-12T20:14:40.265Z,72.50
2018-05-12T20:17:09.321Z,72.50
2018-05-12T20:19:38.372Z,72.70
2018-05-12T20:22:07.476Z,73.00
2018-05-12T20:24:36.572Z,73.00
2018-05-12T20:27:06.524Z,73.10
2018-05-12T20:29:35.557Z,73.10
2018-05-12T20:32:05.423Z,73.50
2018-05-12T20:34:34.504Z,73.50
2018-05-12T20:37:03.423Z,73.70
2018-05-12T20:39:32.539Z,73.70
2018-05-12T20:42:01.755Z,74.00
2018-05-12T20:44:31.583Z,74.40
2018-05-12T20:47:00.678Z,74.30
2018-05-12T20:49:29.812Z,74.60
2018-05-12T20:51:58.996Z,75.00
2018-05-12T20:54:28.189Z,75.20
2018-05-12T20:56:57.381Z,75.00
2018-05-12T20:59:26.496Z,75.40
2018-05-12T21:01:55.883Z,75.50
2018-05-12T21:04:25.161Z,75.80
2018-05-12T21:06:54.241Z,76.10
2018-05-12T21:09:23.820Z,76.10
2018-05-12T21:11:53.312Z,76.50
2018-05-12T21:14:22.591Z,77.70
2018-05-12T21:16:51.758Z,78.00
2018-05-12T21:19:21.642Z,78.40
2018-05-12T21:21:51.029Z,78.40
2018-05-12T21:24:20.966Z,78.00
2018-05-12T21:26:50.951Z,78.30
2018-05-12T21:29:19.999Z,78.20
2018-05-12T21:31:49.785Z,78.00
2018-05-12T21:34:18.905Z,78.00
2018-05-12T21:36:47.948Z,78.00
2018-05-12T21:39:16.746Z,78.20
2018-05-12T21:41:45.768Z,78.20
2018-05-12T21:44:14.566Z,78.40
2018-05-12T21:46:43.863Z,78.50
2018-05-12T21:49:12.919Z,78.30
2018-05-12T21:51:42.069Z,78.90
2018-05-12T21:54:11.182Z,79.10
2018-05-12T21:56:40.229Z,79.00
2018-05-12T21:59:10.270Z,79.40
2018-05-12T22:01:39.363Z,79.40
2018-05-12T22:04:09.268Z,79.00
2018-05-12T22:06:38.349Z,78.60
2018-05-12T22:09:07.420Z,78.90
2018-05-12T22:11:36.460Z,79.40
2018-05-12T22:14:05.553Z,79.60
2018-05-12T22:16:34.574Z,79.50
2018-05-12T22:19:03.735Z,79.30
2018-05-12T22:21:33.521Z,79.40
2018-05-12T22:24:03.337Z,79.40
2018-05-12T22:26:33.197Z,79.40
2018-05-12T22:29:02.267Z,79.40
2018-05-12T22:31:31.306Z,79.30
2018-05-12T22:34:00.339Z,79.10
2018-05-12T22:36:29.596Z,79.40
2018-05-12T22:38:58.646Z,80.60
2018-05-12T22:41:27.697Z,81.00
2018-05-12T22:43:57.522Z,81.10
2018-05-12T22:46:27.323Z,81.50
2018-05-12T22:48:56.381Z,81.30
2018-05-12T22:51:25.409Z,82.40
2018-05-12T22:53:55.256Z,82.20
2018-05-12T22:56:25.081Z,82.10
2018-05-12T22:58:54.255Z,82.10
2018-05-12T23:01:23.361Z,82.30
2018-05-12T23:03:52.465Z,82.80
2018-05-12T23:06:21.171Z,82.60
2018-05-12T23:08:50.252Z,83.60
2018-05-12T23:11:19.379Z,82.70
2018-05-12T23:13:48.453Z,81.80
2018-05-12T23:16:17.642Z,82.90
2018-05-12T23:18:46.356Z,83.80
2018-05-12T23:21:15.372Z,83.90
2018-05-12T23:23:45.199Z,83.40
2018-05-12T23:26:15.011Z,83.60
2018-05-12T23:28:44.048Z,83.70
2018-05-12T23:31:13.096Z,84.00
2018-05-12T23:33:42.137Z,83.80
2018-05-12T23:36:10.826Z,83.80
2018-05-12T23:38:39.869Z,84.20
2018-05-12T23:41:08.895Z,84.80
2018-05-12T23:43:37.927Z,85.00
2018-05-12T23:46:06.992Z,84.70
2018-05-12T23:48:36.227Z,84.70
2018-05-12T23:51:05.266Z,84.70
2018-05-12T23:53:34.315Z,85.30
2018-05-12T23:56:03.347Z,85.00
2018-05-12T23:58:32.377Z,86.00
